createdAt,value
2016-08-07T00:00:01.854Z,77.73
2016-08-07T00:01:02.010Z,78.11
2016-08-07T00:02:01.866Z,77.63
2016-08-07T00:03:01.881Z,78.11
2016-08-07T00:04:02.076Z,78.02
2016-08-07T00:05:01.886Z,78.11
2016-08-07T00:06:01.900Z,78.21
2016-08-07T00:07:01.899Z,78.02
2016-08-07T00:08:01.924Z,77.73
2016-08-07T00:09:01.960Z,78.11
2016-08-07T00:10:02.080Z,78.11
2016-08-07T00:11:01.928Z,78.11
2016-08-07T00:12:02.092Z,78.11
2016-08-07T00:13:01.968Z,78.11
2016-08-07T00:14:02.131Z,78.11
2016-08-07T00:15:02.221Z,78.11
2016-08-07T00:16:01.975Z,78.11
2016-08-07T00:17:01.989Z,78.21
2016-08-07T00:18:02.202Z,78.31
2016-08-07T00:19:02.164Z,78.11
2016-08-07T00:20:02.010Z,78.02
2016-08-07T00:21:02.031Z,78.11
2016-08-07T00:22:02.025Z,78.11
2016-08-07T00:23:02.042Z,78.11
2016-08-07T00:24:02.190Z,78.02
2016-08-07T00:25:02.148Z,78.11
2016-08-07T00:26:02.051Z,78.02
2016-08-07T00:27:02.074Z,78.31
2016-08-07T00:28:02.068Z,78.21
2016-08-07T00:29:02.289Z,77.83
2016-08-07T00:30:02.101Z,78.11
2016-08-07T00:31:02.164Z,77.92
2016-08-07T00:32:02.117Z,78.02
2016-08-07T00:33:02.118Z,77.92
2016-08-07T00:34:02.121Z,78.02
2016-08-07T00:35:02.130Z,78.11
2016-08-07T00:36:02.138Z,78.02
2016-08-07T00:37:02.342Z,78.02
2016-08-07T00:39:02.156Z,77.88
2016-08-07T00:40:02.187Z,78.02
2016-08-07T00:41:02.177Z,77.83
2016-08-07T00:42:02.188Z,78.02
2016-08-07T00:43:02.359Z,78.02
2016-08-07T00:44:02.197Z,77.73
2016-08-07T00:45:02.732Z,77.83
2016-08-07T00:46:03.716Z,78.02
2016-08-07T00:47:02.273Z,78.02
2016-08-07T00:48:02.241Z,78.11
2016-08-07T00:49:02.251Z,78.21
2016-08-07T00:50:02.358Z,78.02
2016-08-07T00:52:02.535Z,78.21
2016-08-07T00:53:02.349Z,78.02
2016-08-07T00:54:02.999Z,78.21
2016-08-07T00:55:02.305Z,77.78
2016-08-07T00:56:02.318Z,78.02
2016-08-07T00:57:02.519Z,77.83
2016-08-07T00:58:02.327Z,77.92
2016-08-07T00:59:02.748Z,77.92
2016-08-07T01:00:02.329Z,77.53
2016-08-07T01:01:02.556Z,77.92
2016-08-07T01:02:02.360Z,77.92
2016-08-07T01:03:02.360Z,77.92
2016-08-07T01:04:02.368Z,78.11
2016-08-07T01:05:02.566Z,77.92
2016-08-07T01:07:02.652Z,77.92
2016-08-07T01:08:02.415Z,78.11
2016-08-07T01:09:02.476Z,77.83
2016-08-07T01:10:02.417Z,77.83
2016-08-07T01:11:02.414Z,77.92
2016-08-07T01:12:02.447Z,77.92
2016-08-07T01:13:03.161Z,77.92
2016-08-07T01:14:02.551Z,78.21
2016-08-07T01:15:02.607Z,77.88
2016-08-07T01:16:03.179Z,77.83
2016-08-07T01:17:02.485Z,77.92
2016-08-07T01:18:02.472Z,77.88
2016-08-07T01:19:02.503Z,77.92
2016-08-07T01:20:02.651Z,77.83
2016-08-07T01:21:02.572Z,77.78
2016-08-07T01:22:02.546Z,78.11
2016-08-07T01:23:02.525Z,77.78
2016-08-07T01:24:02.636Z,77.92
2016-08-07T01:25:02.545Z,77.92
2016-08-07T01:26:02.540Z,77.92
2016-08-07T01:27:02.560Z,77.88
2016-08-07T01:28:02.563Z,77.83
2016-08-07T01:29:02.592Z,77.78
2016-08-07T01:30:02.584Z,77.69
2016-08-07T01:31:02.602Z,77.88
2016-08-07T01:32:02.700Z,77.88
2016-08-07T01:33:02.622Z,77.69
2016-08-07T01:34:03.979Z,77.83
2016-08-07T01:35:03.237Z,77.92
2016-08-07T01:36:02.634Z,77.78
2016-08-07T01:37:02.650Z,77.78
2016-08-07T01:38:02.705Z,77.78
2016-08-07T01:39:02.655Z,77.78
2016-08-07T01:40:02.653Z,77.78
2016-08-07T01:41:02.666Z,77.78
2016-08-07T01:42:02.684Z,77.78
2016-08-07T01:43:02.810Z,77.69
2016-08-07T01:44:02.691Z,77.88
2016-08-07T01:45:03.156Z,77.83
2016-08-07T01:46:02.866Z,77.78
2016-08-07T01:47:02.803Z,77.88
2016-08-07T01:48:02.745Z,77.78
2016-08-07T01:49:03.431Z,77.88
2016-08-07T01:50:03.690Z,77.88
2016-08-07T01:51:02.761Z,77.88
2016-08-07T01:52:02.761Z,77.88
2016-08-07T01:53:03.483Z,77.69
2016-08-07T01:54:02.781Z,77.78
2016-08-07T01:55:02.783Z,77.78
2016-08-07T01:56:02.788Z,77.78
2016-08-07T01:57:02.808Z,77.69
2016-08-07T01:58:02.829Z,77.88
2016-08-07T01:59:02.834Z,77.88
2016-08-07T02:00:02.834Z,77.88
2016-08-07T02:01:02.834Z,77.78
2016-08-07T02:02:02.837Z,77.88
2016-08-07T02:03:02.837Z,77.78
2016-08-07T02:04:05.273Z,77.88
2016-08-07T02:05:02.867Z,77.78
2016-08-07T02:06:02.862Z,77.88
2016-08-07T02:07:02.893Z,77.88
2016-08-07T02:08:02.890Z,77.78
2016-08-07T02:09:02.949Z,77.78
2016-08-07T02:10:02.938Z,77.88
2016-08-07T02:11:02.920Z,77.88
2016-08-07T02:12:02.910Z,77.88
2016-08-07T02:13:03.087Z,77.59
2016-08-07T02:14:02.925Z,77.78
2016-08-07T02:15:02.939Z,77.88
2016-08-07T02:16:03.002Z,77.69
2016-08-07T02:17:02.963Z,77.88
2016-08-07T02:18:02.962Z,77.88
2016-08-07T02:19:02.989Z,77.78
2016-08-07T02:20:02.971Z,77.88
2016-08-07T02:21:03.015Z,77.78
2016-08-07T02:22:03.004Z,77.69
2016-08-07T02:23:03.136Z,77.69
2016-08-07T02:24:03.018Z,77.88
2016-08-07T02:25:03.019Z,77.88
2016-08-07T02:26:03.056Z,77.59
2016-08-07T02:27:03.036Z,77.88
2016-08-07T02:28:03.064Z,77.69
2016-08-07T02:29:03.069Z,77.88
2016-08-07T02:30:03.066Z,77.78
2016-08-07T02:31:03.073Z,77.98
2016-08-07T02:32:05.295Z,77.88
2016-08-07T02:33:03.093Z,77.88
2016-08-07T02:34:03.276Z,77.88
2016-08-07T02:35:03.116Z,77.59
2016-08-07T02:36:03.113Z,77.98
2016-08-07T02:37:03.108Z,77.69
2016-08-07T02:38:03.117Z,77.78
2016-08-07T02:39:03.168Z,77.59
2016-08-07T02:40:04.351Z,77.88
2016-08-07T02:41:03.142Z,77.59
2016-08-07T02:42:03.173Z,77.98
2016-08-07T02:43:03.160Z,77.69
2016-08-07T02:44:03.177Z,77.98
2016-08-07T02:45:03.190Z,77.78
2016-08-07T02:46:03.199Z,77.59
2016-08-07T02:47:03.191Z,77.78
2016-08-07T02:48:03.205Z,77.78
2016-08-07T02:49:03.214Z,77.78
2016-08-07T02:50:03.220Z,77.59
2016-08-07T02:51:03.249Z,77.78
2016-08-07T02:52:03.227Z,77.78
2016-08-07T02:53:03.245Z,77.88
2016-08-07T02:54:03.246Z,77.78
2016-08-07T02:55:03.293Z,77.78
2016-08-07T02:56:04.564Z,77.88
2016-08-07T02:57:03.281Z,77.69
2016-08-07T02:58:03.335Z,77.69
2016-08-07T02:59:03.298Z,77.78
2016-08-07T03:00:04.003Z,77.78
2016-08-07T03:01:03.334Z,77.88
2016-08-07T03:02:03.315Z,77.59
2016-08-07T03:03:03.328Z,77.5
2016-08-07T03:04:03.345Z,77.59
2016-08-07T03:05:04.043Z,77.88
2016-08-07T03:06:03.362Z,77.69
2016-08-07T03:07:03.348Z,77.88
2016-08-07T03:08:03.356Z,77.69
2016-08-07T03:09:03.563Z,77.88
2016-08-07T03:10:03.604Z,77.78
2016-08-07T03:11:03.406Z,77.78
2016-08-07T03:12:03.392Z,77.69
2016-08-07T03:13:03.406Z,77.78
2016-08-07T03:14:03.404Z,77.88
2016-08-07T03:15:03.796Z,77.69
2016-08-07T03:16:03.430Z,77.59
2016-08-07T03:17:03.427Z,77.78
2016-08-07T03:18:03.445Z,77.69
2016-08-07T03:19:03.448Z,77.88
2016-08-07T03:20:03.466Z,77.69
2016-08-07T03:21:04.149Z,77.88
2016-08-07T03:22:03.488Z,77.88
2016-08-07T03:23:03.491Z,77.69
2016-08-07T03:24:04.210Z,77.88
2016-08-07T03:25:03.500Z,77.69
2016-08-07T03:26:03.651Z,77.88
2016-08-07T03:27:03.511Z,77.78
2016-08-07T03:28:03.517Z,77.59
2016-08-07T03:29:03.550Z,77.98
2016-08-07T03:30:03.799Z,77.69
2016-08-07T03:31:03.559Z,77.69
2016-08-07T03:32:03.567Z,77.78
2016-08-07T03:33:03.559Z,77.69
2016-08-07T03:34:03.866Z,77.59
2016-08-07T03:35:03.574Z,77.69
2016-08-07T03:36:03.589Z,77.69
2016-08-07T03:37:03.590Z,77.98
2016-08-07T03:38:03.913Z,77.78
2016-08-07T03:39:03.633Z,77.88
2016-08-07T03:40:03.606Z,77.69
2016-08-07T03:41:03.639Z,77.78
2016-08-07T03:42:03.639Z,77.78
2016-08-07T03:43:05.815Z,77.59
2016-08-07T03:44:03.643Z,77.88
2016-08-07T03:45:04.412Z,77.69
2016-08-07T03:46:03.675Z,77.69
2016-08-07T03:47:03.680Z,77.69
2016-08-07T03:48:03.975Z,77.78
2016-08-07T03:49:04.000Z,77.78
2016-08-07T03:50:03.723Z,77.59
2016-08-07T03:51:03.706Z,77.69
2016-08-07T03:52:03.713Z,77.78
2016-08-07T03:53:03.720Z,77.78
2016-08-07T03:54:03.731Z,77.78
2016-08-07T03:55:03.748Z,77.78
2016-08-07T03:56:04.645Z,77.88
2016-08-07T03:57:03.744Z,77.78
2016-08-07T03:58:03.774Z,77.78
2016-08-07T03:59:03.868Z,77.78
2016-08-07T04:00:06.294Z,77.78
2016-08-07T04:01:03.791Z,77.88
2016-08-07T04:02:03.814Z,77.88
2016-08-07T04:03:03.806Z,77.69
2016-08-07T04:04:03.863Z,77.88
2016-08-07T04:05:03.811Z,77.88
2016-08-07T04:06:03.881Z,77.69
2016-08-07T04:07:03.837Z,77.88
2016-08-07T04:08:03.839Z,77.78
2016-08-07T04:09:03.850Z,77.78
2016-08-07T04:10:03.842Z,77.78
2016-08-07T04:11:04.542Z,77.88
2016-08-07T04:12:03.909Z,77.88
2016-08-07T04:13:03.875Z,77.78
2016-08-07T04:14:03.900Z,77.88
2016-08-07T04:15:04.274Z,77.78
2016-08-07T04:16:03.915Z,77.78
2016-08-07T04:17:03.904Z,77.88
2016-08-07T04:18:03.945Z,77.88
2016-08-07T04:19:03.919Z,77.88
2016-08-07T04:20:03.936Z,78.17
2016-08-07T04:21:03.966Z,78.17
2016-08-07T04:22:03.956Z,77.78
2016-08-07T04:23:03.970Z,78.17
2016-08-07T04:24:03.969Z,78.17
2016-08-07T04:25:04.126Z,77.98
2016-08-07T04:26:04.170Z,77.88
2016-08-07T04:27:04.001Z,78.17
2016-08-07T04:28:04.016Z,77.88
2016-08-07T04:29:04.015Z,77.98
2016-08-07T04:30:04.289Z,78.08
2016-08-07T04:31:04.034Z,77.98
2016-08-07T04:32:04.033Z,77.78
2016-08-07T04:33:04.033Z,77.98
2016-08-07T04:34:04.190Z,78.08
2016-08-07T04:35:04.107Z,78.17
2016-08-07T04:36:04.057Z,78.17
2016-08-07T04:37:04.115Z,78.08
2016-08-07T04:38:04.079Z,78.08
2016-08-07T04:39:04.083Z,78.08
2016-08-07T04:40:04.088Z,78.08
2016-08-07T04:41:04.189Z,78.08
2016-08-07T04:42:04.102Z,77.88
2016-08-07T04:43:04.829Z,77.88
2016-08-07T04:44:04.180Z,77.88
2016-08-07T04:45:04.124Z,77.88
2016-08-07T04:46:04.150Z,77.69
2016-08-07T04:47:04.154Z,77.69
2016-08-07T04:48:04.345Z,77.88
2016-08-07T04:49:04.173Z,77.69
2016-08-07T04:50:04.173Z,77.78
2016-08-07T04:51:04.170Z,77.59
2016-08-07T04:52:04.177Z,77.69
2016-08-07T04:53:04.285Z,77.69
2016-08-07T04:54:04.258Z,77.69
2016-08-07T04:55:04.315Z,77.69
2016-08-07T04:56:04.480Z,77.69
2016-08-07T04:57:04.223Z,77.78
2016-08-07T04:58:04.290Z,77.78
2016-08-07T04:59:04.434Z,77.69
2016-08-07T05:00:04.252Z,77.78
2016-08-07T05:01:04.267Z,77.69
2016-08-07T05:02:04.464Z,77.69
2016-08-07T05:03:04.625Z,77.69
2016-08-07T05:04:05.010Z,77.69
2016-08-07T05:05:04.431Z,77.4
2016-08-07T05:06:04.648Z,77.59
2016-08-07T05:07:04.318Z,77.59
2016-08-07T05:08:04.302Z,77.59
2016-08-07T05:09:04.322Z,77.5
2016-08-07T05:10:04.742Z,77.31
2016-08-07T05:11:04.536Z,77.69
2016-08-07T05:12:04.336Z,77.31
2016-08-07T05:13:04.369Z,77.31
2016-08-07T05:14:05.318Z,77.4
2016-08-07T05:15:04.422Z,77.31
2016-08-07T05:16:04.378Z,77.4
2016-08-07T05:17:04.499Z,77.69
2016-08-07T05:18:04.547Z,77.59
2016-08-07T05:19:04.593Z,77.59
2016-08-07T05:20:04.418Z,77.31
2016-08-07T05:21:04.657Z,77.5
2016-08-07T05:23:04.533Z,77.21
2016-08-07T05:24:04.745Z,77.59
2016-08-07T05:25:05.101Z,77.5
2016-08-07T05:26:04.454Z,77.5
2016-08-07T05:27:04.461Z,77.31
2016-08-07T05:28:04.620Z,77.21
2016-08-07T05:29:05.282Z,77.4
2016-08-07T05:30:04.793Z,77.4
2016-08-07T05:31:04.493Z,77.5
2016-08-07T05:32:04.496Z,77.21
2016-08-07T05:33:04.654Z,77.21
2016-08-07T05:34:04.530Z,77.5
2016-08-07T05:35:04.522Z,77.4
2016-08-07T05:36:04.538Z,77.21
2016-08-07T05:37:04.556Z,77.21
2016-08-07T05:38:04.562Z,77.4
2016-08-07T05:39:04.752Z,77.31
2016-08-07T05:40:04.579Z,77.31
2016-08-07T05:41:04.580Z,77.5
2016-08-07T05:42:04.578Z,77.31
2016-08-07T05:43:04.600Z,77.4
2016-08-07T05:44:04.620Z,77.4
2016-08-07T05:45:04.637Z,77.5
2016-08-07T05:46:04.620Z,77.69
2016-08-07T05:47:05.303Z,77.31
2016-08-07T05:48:04.644Z,77.5
2016-08-07T05:49:04.793Z,77.21
2016-08-07T05:50:05.335Z,77.69
2016-08-07T05:51:04.656Z,77.31
2016-08-07T05:52:04.655Z,77.31
2016-08-07T05:53:04.677Z,77.5
2016-08-07T05:54:04.683Z,77.21
2016-08-07T05:55:04.698Z,77.21
2016-08-07T05:56:04.704Z,77.4
2016-08-07T05:57:04.706Z,77.4
2016-08-07T05:58:04.722Z,77.21
2016-08-07T05:59:04.720Z,77.11
2016-08-07T06:00:04.737Z,77.21
2016-08-07T06:01:04.743Z,77.01
2016-08-07T06:02:04.741Z,77.21
2016-08-07T06:03:04.748Z,77.11
2016-08-07T06:04:04.751Z,77.21
2016-08-07T06:05:04.763Z,77.31
2016-08-07T06:06:04.772Z,77.21
2016-08-07T06:07:04.921Z,77.11
2016-08-07T06:08:04.788Z,77.01
2016-08-07T06:09:04.792Z,77.01
2016-08-07T06:10:05.576Z,77.21
2016-08-07T06:11:04.813Z,77.11
2016-08-07T06:12:04.816Z,77.21
2016-08-07T06:13:04.842Z,76.92
2016-08-07T06:14:04.836Z,76.92
2016-08-07T06:15:05.774Z,77.11
2016-08-07T06:16:04.867Z,77.11
2016-08-07T06:17:04.852Z,77.11
2016-08-07T06:18:04.884Z,77.21
2016-08-07T06:19:04.876Z,77.11
2016-08-07T06:20:04.899Z,76.92
2016-08-07T06:21:04.910Z,76.92
2016-08-07T06:22:04.917Z,77.11
2016-08-07T06:23:04.980Z,77.11
2016-08-07T06:24:04.933Z,76.92
2016-08-07T06:25:04.921Z,77.21
2016-08-07T06:26:04.964Z,76.82
2016-08-07T06:27:04.950Z,77.01
2016-08-07T06:28:04.945Z,77.01
2016-08-07T06:29:04.973Z,77.11
2016-08-07T06:30:04.979Z,76.92
2016-08-07T06:31:04.981Z,77.01
2016-08-07T06:32:07.723Z,77.01
2016-08-07T06:33:05.001Z,77.21
2016-08-07T06:34:05.012Z,77.01
2016-08-07T06:35:07.304Z,77.21
2016-08-07T06:36:05.014Z,76.92
2016-08-07T06:37:05.032Z,77.31
2016-08-07T06:38:05.040Z,77.11
2016-08-07T06:39:05.053Z,77.31
2016-08-07T06:40:05.604Z,77.11
2016-08-07T06:41:06.121Z,77.11
2016-08-07T06:42:05.060Z,77.21
2016-08-07T06:43:05.071Z,77.31
2016-08-07T06:44:05.700Z,77.21
2016-08-07T06:45:05.192Z,77.31
2016-08-07T06:46:05.089Z,76.96
2016-08-07T06:47:05.118Z,77.11
2016-08-07T06:48:05.121Z,77.01
2016-08-07T06:49:05.150Z,77.25
2016-08-07T06:50:05.126Z,76.96
2016-08-07T06:51:05.154Z,76.73
2016-08-07T06:52:05.151Z,76.82
2016-08-07T06:53:05.154Z,76.73
2016-08-07T06:54:05.166Z,76.76
2016-08-07T06:55:05.185Z,76.82
2016-08-07T06:56:05.187Z,77.31
2016-08-07T06:57:05.185Z,77.21
2016-08-07T06:58:05.223Z,77.21
2016-08-07T06:59:05.212Z,77.01
2016-08-07T07:00:05.900Z,77.25
2016-08-07T07:01:05.231Z,77.15
2016-08-07T07:02:05.248Z,77.21
2016-08-07T07:03:05.231Z,77.21
2016-08-07T07:04:05.250Z,77.15
2016-08-07T07:05:05.252Z,77.25
2016-08-07T07:06:05.257Z,77.01
2016-08-07T07:07:05.261Z,77.11
2016-08-07T07:08:05.268Z,77.06
2016-08-07T07:09:05.269Z,77.01
2016-08-07T07:10:05.980Z,76.92
2016-08-07T07:11:05.310Z,76.67
2016-08-07T07:12:05.304Z,76.67
2016-08-07T07:13:05.302Z,76.57
2016-08-07T07:14:05.330Z,76.76
2016-08-07T07:15:05.337Z,76.67
2016-08-07T07:16:05.340Z,76.96
2016-08-07T07:17:05.348Z,76.76
2016-08-07T07:18:05.348Z,76.86
2016-08-07T07:19:05.353Z,76.76
2016-08-07T07:20:05.411Z,76.86
2016-08-07T07:21:05.385Z,76.76
2016-08-07T07:22:05.376Z,76.76
2016-08-07T07:23:05.401Z,76.96
2016-08-07T07:24:05.406Z,76.86
2016-08-07T07:25:05.396Z,76.63
2016-08-07T07:26:05.634Z,76.67
2016-08-07T07:27:05.426Z,76.57
2016-08-07T07:28:05.478Z,76.67
2016-08-07T07:29:05.438Z,76.57
2016-08-07T07:30:05.440Z,76.67
2016-08-07T07:31:05.462Z,76.86
2016-08-07T07:32:05.451Z,77.06
2016-08-07T07:33:05.511Z,76.76
2016-08-07T07:34:05.488Z,76.48
2016-08-07T07:35:05.490Z,76.86
2016-08-07T07:36:05.490Z,76.67
2016-08-07T07:37:05.506Z,76.48
2016-08-07T07:38:05.512Z,76.09
2016-08-07T07:39:05.505Z,76.38
2016-08-07T07:40:05.594Z,76.48
2016-08-07T07:41:05.527Z,76.18
2016-08-07T07:42:05.534Z,76.57
2016-08-07T07:43:05.550Z,76.48
2016-08-07T07:44:05.556Z,76.28
2016-08-07T07:45:05.558Z,76.28
2016-08-07T07:46:05.589Z,76.48
2016-08-07T07:47:05.595Z,76.28
2016-08-07T07:48:05.817Z,76.28
2016-08-07T08:02:07.323Z,76.18
2016-08-07T08:03:07.341Z,76.09
2016-08-07T08:04:07.335Z,75.71
2016-08-07T08:05:07.337Z,75.71
2016-08-07T08:06:07.379Z,75.71
2016-08-07T08:07:07.371Z,75.9
2016-08-07T08:08:07.384Z,75.99
2016-08-07T08:09:07.387Z,76.09
2016-08-07T08:10:07.404Z,75.9
2016-08-07T08:11:07.387Z,75.99
2016-08-07T08:12:07.400Z,75.9
2016-08-07T08:13:07.406Z,75.99
2016-08-07T08:14:07.420Z,75.99
2016-08-07T08:15:07.420Z,75.99
2016-08-07T08:16:07.431Z,75.8
2016-08-07T08:17:07.439Z,75.71
2016-08-07T08:18:07.454Z,75.71
2016-08-07T08:19:07.464Z,75.99
2016-08-07T08:20:07.465Z,75.9
2016-08-07T08:21:07.476Z,75.99
2016-08-07T08:22:07.487Z,75.71
2016-08-07T08:23:07.506Z,75.55
2016-08-07T08:24:07.518Z,75.61
2016-08-07T08:25:07.492Z,75.51
2016-08-07T08:26:07.520Z,75.65
2016-08-07T08:27:07.531Z,75.65
2016-08-07T08:28:07.538Z,75.51
2016-08-07T08:29:07.540Z,75.42
2016-08-07T08:30:07.547Z,75.61
2016-08-07T08:31:07.562Z,75.36
2016-08-07T08:32:07.551Z,75.61
2016-08-07T08:33:07.563Z,75.42
2016-08-07T08:34:07.578Z,75.45
2016-08-07T08:35:07.575Z,75.36
2016-08-07T08:36:07.593Z,75.13
2016-08-07T08:37:07.602Z,75.51
2016-08-07T08:38:07.606Z,75.84
2016-08-07T08:39:07.621Z,75.55
2016-08-07T08:40:07.617Z,75.74
2016-08-07T08:41:07.627Z,74.97
2016-08-07T08:42:07.633Z,74.84
2016-08-07T08:43:07.646Z,75.36
2016-08-07T08:44:07.644Z,74.97
2016-08-07T08:45:07.673Z,74.97
2016-08-07T08:46:07.687Z,75.07
2016-08-07T08:47:07.677Z,74.97
2016-08-07T08:48:07.683Z,75.07
2016-08-07T08:49:07.703Z,74.97
2016-08-07T08:50:07.706Z,75.26
2016-08-07T08:51:07.704Z,75.26
2016-08-07T08:52:07.721Z,75.26
2016-08-07T08:54:07.749Z,75.26
2016-08-07T08:55:07.749Z,75.36
2016-08-07T08:56:07.743Z,75.36
2016-08-07T08:57:07.751Z,75.26
2016-08-07T08:58:07.761Z,75.16
2016-08-07T08:59:07.770Z,75.16
2016-08-07T09:00:07.793Z,74.88
2016-08-07T09:01:07.799Z,74.97
2016-08-07T09:02:07.818Z,74.78
2016-08-07T09:03:07.810Z,74.97
2016-08-07T09:04:07.816Z,74.97
2016-08-07T09:05:07.826Z,74.78
2016-08-07T09:06:07.847Z,74.68
2016-08-07T09:07:07.850Z,74.68
2016-08-07T09:09:07.875Z,74.68
2016-08-07T09:10:07.860Z,74.78
2016-08-07T09:11:07.889Z,74.49
2016-08-07T09:12:07.889Z,74.78
2016-08-07T09:13:07.885Z,74.68
2016-08-07T09:14:07.909Z,74.49
2016-08-07T09:15:07.908Z,74.58
2016-08-07T09:16:07.923Z,74.68
2016-08-07T09:17:07.911Z,74.78
2016-08-07T09:18:07.929Z,74.68
2016-08-07T09:19:07.953Z,74.49
2016-08-07T09:20:07.961Z,74.68
2016-08-07T09:21:07.960Z,74.3
2016-08-07T09:22:07.983Z,74.4
2016-08-07T09:23:07.973Z,74.01
2016-08-07T09:24:07.988Z,74.3
2016-08-07T09:25:07.983Z,74.14
2016-08-07T09:26:08.002Z,74.43
2016-08-07T09:27:08.015Z,74.05
2016-08-07T09:28:08.003Z,74.05
2016-08-07T09:29:08.030Z,74.14
2016-08-07T09:30:08.027Z,74.33
2016-08-07T09:31:08.032Z,74.24
2016-08-07T09:32:08.047Z,74.33
2016-08-07T09:33:08.064Z,74.24
2016-08-07T09:34:08.059Z,74.33
2016-08-07T09:35:08.071Z,73.95
2016-08-07T09:36:08.081Z,74.05
2016-08-07T09:37:08.090Z,73.85
2016-08-07T09:38:08.107Z,74.24
2016-08-07T09:39:08.115Z,73.75
2016-08-07T09:40:08.114Z,73.75
2016-08-07T09:41:08.126Z,74.14
2016-08-07T09:42:08.144Z,74.05
2016-08-07T09:43:08.138Z,74.05
2016-08-07T09:44:08.141Z,74.05
2016-08-07T09:45:08.164Z,74.24
2016-08-07T09:46:08.180Z,73.85
2016-08-07T09:47:08.165Z,73.66
2016-08-07T09:48:08.184Z,73.57
2016-08-07T09:49:08.191Z,73.66
2016-08-07T09:50:08.190Z,73.57
2016-08-07T09:51:08.196Z,73.37
2016-08-07T09:52:08.232Z,73.27
2016-08-07T09:53:08.225Z,73.31
2016-08-07T09:54:08.244Z,73.27
2016-08-07T09:55:08.243Z,73.27
2016-08-07T09:56:08.255Z,73.41
2016-08-07T09:57:08.251Z,73.57
2016-08-07T09:58:08.264Z,73.41
2016-08-07T09:59:08.287Z,73.31
2016-08-07T10:00:08.284Z,73.31
2016-08-07T10:01:08.299Z,73.5
2016-08-07T10:02:08.308Z,73.41
2016-08-07T10:03:08.300Z,73.6
2016-08-07T10:04:08.317Z,73.5
2016-08-07T10:05:08.331Z,73.69
2016-08-07T10:06:08.339Z,73.79
2016-08-07T10:07:08.350Z,73.89
2016-08-07T10:08:08.364Z,73.6
2016-08-07T10:09:08.360Z,73.21
2016-08-07T10:10:08.370Z,73.21
2016-08-07T10:11:08.380Z,73.21
2016-08-07T10:12:08.378Z,73.41
2016-08-07T10:13:08.396Z,73.02
2016-08-07T10:14:08.409Z,73.31
2016-08-07T10:15:08.418Z,73.21
2016-08-07T10:16:08.415Z,73.5
2016-08-07T10:17:08.429Z,73.6
2016-08-07T10:18:08.448Z,73.6
2016-08-07T10:19:08.435Z,73.31
2016-08-07T10:20:08.442Z,73.21
2016-08-07T10:21:08.449Z,73.5
2016-08-07T10:22:08.463Z,72.92
2016-08-07T10:23:08.468Z,73.02
2016-08-07T10:24:08.490Z,72.92
2016-08-07T10:25:08.497Z,73.02
2016-08-07T10:26:08.515Z,73.06
2016-08-07T10:27:08.519Z,73.25
2016-08-07T10:28:08.520Z,73.06
2016-08-07T10:29:08.532Z,73.35
2016-08-07T10:30:08.533Z,72.77
2016-08-07T10:31:08.546Z,72.73
2016-08-07T10:32:08.554Z,72.44
2016-08-07T10:33:08.592Z,72.77
2016-08-07T10:34:08.586Z,72.58
2016-08-07T10:35:08.591Z,72.86
2016-08-07T10:36:08.580Z,72.77
2016-08-07T10:37:08.586Z,72.58
2016-08-07T10:38:08.598Z,72.58
2016-08-07T10:39:08.621Z,72.96
2016-08-07T10:40:08.612Z,72.96
2016-08-07T10:41:08.630Z,72.96
2016-08-07T10:42:08.648Z,72.86
2016-08-07T10:43:08.642Z,73.15
2016-08-07T10:44:08.669Z,73.15
2016-08-07T10:45:08.678Z,72.77
2016-08-07T10:46:08.681Z,72.86
2016-08-07T10:47:08.674Z,72.67
2016-08-07T10:48:08.703Z,72.48
2016-08-07T10:49:08.713Z,72.67
2016-08-07T10:50:08.715Z,72.48
2016-08-07T10:51:08.731Z,72.38
2016-08-07T10:52:08.727Z,72.38
2016-08-07T10:53:09.183Z,72.19
2016-08-07T10:54:08.733Z,72.48
2016-08-07T10:55:08.758Z,72.28
2016-08-07T10:56:08.773Z,72.28
2016-08-07T10:57:08.777Z,72.09
2016-08-07T10:58:08.786Z,72.38
2016-08-07T10:59:08.798Z,72.19
2016-08-07T11:00:08.802Z,72.19
2016-08-07T11:01:08.801Z,72.19
2016-08-07T11:02:08.829Z,72.09
2016-08-07T11:03:08.820Z,72.48
2016-08-07T11:04:08.849Z,72.58
2016-08-07T11:05:08.856Z,72.09
2016-08-07T11:06:08.867Z,72.58
2016-08-07T11:07:08.861Z,72.38
2016-08-07T11:08:08.881Z,72.28
2016-08-07T11:09:08.891Z,72.28
2016-08-07T11:10:08.884Z,72.38
2016-08-07T11:11:08.908Z,72.09
2016-08-07T11:12:08.901Z,72.13
2016-08-07T11:13:08.914Z,72.09
2016-08-07T11:14:08.912Z,71.94
2016-08-07T11:15:08.939Z,72.22
2016-08-07T11:16:08.927Z,72.13
2016-08-07T11:17:08.948Z,71.94
2016-08-07T11:18:08.957Z,72.09
2016-08-07T11:19:08.956Z,72.52
2016-08-07T11:20:08.981Z,72.13
2016-08-07T11:21:09.676Z,72.28
2016-08-07T11:22:08.990Z,72.67
2016-08-07T11:23:09.018Z,72.38
2016-08-07T11:24:09.021Z,72.32
2016-08-07T11:25:09.027Z,72.03
2016-08-07T11:26:09.032Z,72.42
2016-08-07T11:27:09.050Z,72.03
2016-08-07T11:28:09.048Z,71.84
2016-08-07T11:29:09.059Z,71.84
2016-08-07T11:30:09.061Z,71.94
2016-08-07T11:31:09.069Z,72.13
2016-08-07T11:32:09.087Z,72.13
2016-08-07T11:33:09.078Z,72.13
2016-08-07T11:34:09.109Z,71.74
2016-08-07T11:35:09.124Z,71.74
2016-08-07T11:36:09.105Z,71.84
2016-08-07T11:37:09.137Z,71.64
2016-08-07T11:38:09.159Z,71.74
2016-08-07T11:39:09.155Z,71.84
2016-08-07T11:40:09.158Z,71.64
2016-08-07T11:41:09.159Z,71.94
2016-08-07T11:42:09.165Z,71.68
2016-08-07T11:43:09.171Z,71.55
2016-08-07T11:44:09.200Z,71.78
2016-08-07T11:45:09.212Z,71.45
2016-08-07T11:46:09.203Z,71.94
2016-08-07T11:47:09.213Z,71.88
2016-08-07T11:48:09.237Z,72.06
2016-08-07T11:49:09.248Z,71.84
2016-08-07T11:50:09.255Z,71.64
2016-08-07T11:51:09.259Z,71.64
2016-08-07T11:52:09.261Z,71.68
2016-08-07T11:53:09.282Z,71.84
2016-08-07T11:54:09.275Z,72.22
2016-08-07T11:55:09.302Z,71.84
2016-08-07T11:56:09.316Z,71.94
2016-08-07T11:57:09.316Z,71.84
2016-08-07T11:58:09.306Z,72.03
2016-08-07T11:59:09.321Z,71.94
2016-08-07T12:00:09.350Z,72.32
2016-08-07T12:01:09.335Z,71.94
2016-08-07T12:02:09.356Z,72.32
2016-08-07T12:03:09.369Z,72.03
2016-08-07T12:04:09.370Z,72.32
2016-08-07T12:05:09.396Z,72.22
2016-08-07T12:06:09.381Z,72.32
2016-08-07T12:07:09.408Z,72.03
2016-08-07T12:08:09.416Z,72.13
2016-08-07T12:09:09.421Z,72.22
2016-08-07T12:10:09.837Z,71.94
2016-08-07T12:11:09.445Z,71.88
2016-08-07T12:12:09.439Z,71.97
2016-08-07T12:13:09.447Z,71.58
2016-08-07T12:14:09.468Z,71.88
2016-08-07T12:15:09.459Z,72.06
2016-08-07T12:16:09.474Z,71.88
2016-08-07T12:17:09.483Z,71.88
2016-08-07T12:18:09.501Z,72.06
2016-08-07T12:19:09.498Z,72.06
2016-08-07T12:20:09.528Z,72.03
2016-08-07T12:21:09.527Z,72.03
2016-08-07T12:22:09.532Z,72.26
2016-08-07T12:23:09.559Z,72.03
2016-08-07T12:24:09.564Z,72.16
2016-08-07T12:25:09.577Z,71.88
2016-08-07T12:26:09.575Z,71.88
2016-08-07T12:27:09.579Z,71.68
2016-08-07T12:28:09.583Z,71.88
2016-08-07T12:29:09.587Z,71.68
2016-08-07T12:30:09.624Z,71.48
2016-08-07T12:31:09.612Z,71.78
2016-08-07T12:32:09.624Z,71.58
2016-08-07T12:33:09.619Z,71.48
2016-08-07T12:34:09.638Z,71.58
2016-08-07T12:35:09.658Z,71.1
2016-08-07T12:36:09.665Z,71.39
2016-08-07T12:37:09.667Z,71.3
2016-08-07T12:38:09.671Z,71.39
2016-08-07T12:39:09.697Z,71.78
2016-08-07T12:40:09.690Z,71.3
2016-08-07T12:41:09.851Z,71.39
2016-08-07T12:42:09.829Z,71.39
2016-08-07T12:43:09.712Z,71.39
2016-08-07T12:44:09.730Z,71.3
2016-08-07T12:45:09.751Z,71.2
2016-08-07T12:46:09.748Z,71.58
2016-08-07T12:47:09.770Z,71.48
2016-08-07T12:48:09.779Z,71.39
2016-08-07T12:49:09.778Z,71.3
2016-08-07T12:50:09.796Z,71.42
2016-08-07T12:51:09.802Z,71.3
2016-08-07T12:52:09.795Z,71.3
2016-08-07T12:53:09.822Z,71.52
2016-08-07T12:54:09.821Z,71.52
2016-08-07T12:55:09.833Z,71.62
2016-08-07T12:56:09.845Z,71.62
2016-08-07T12:57:09.854Z,71.48
2016-08-07T12:58:09.862Z,71.52
2016-08-07T12:59:10.042Z,71.23
2016-08-07T13:00:09.882Z,71.42
2016-08-07T13:01:09.891Z,71.39
2016-08-07T13:02:09.894Z,71.33
2016-08-07T13:03:09.890Z,71.42
2016-08-07T13:04:09.918Z,71.42
2016-08-07T13:05:09.928Z,71.39
2016-08-07T13:06:09.938Z,71.62
2016-08-07T13:07:09.947Z,71.48
2016-08-07T13:08:09.959Z,71.68
2016-08-07T13:09:09.949Z,71.97
2016-08-07T13:10:09.976Z,71.88
2016-08-07T13:11:09.981Z,71.68
2016-08-07T13:12:09.985Z,71.97
2016-08-07T13:13:09.998Z,71.68